sensor_id;sensor_type;location;lat;lon;timestamp;pressure;altitude;pressure_sealevel;temperature;humidity
56518;BME280;42419;48.760;2.322;2023-04-25T00:00:19;100426.69;;;24.76;31.88
56518;BME280;42419;48.760;2.322;2023-04-25T00:02:44;100422.13;;;24.77;31.49
56518;BME280;42419;48.760;2.322;2023-04-25T00:05:11;100440.69;;;24.81;31.85
56518;BME280;42419;48.760;2.322;2023-04-25T00:07:37;100435.22;;;24.83;31.46
56518;BME280;42419;48.760;2.322;2023-04-25T00:10:03;100433.28;;;24.85;32.02
56518;BME280;42419;48.760;2.322;2023-04-25T00:12:28;100430.78;;;24.82;31.85
56518;BME280;42419;48.760;2.322;2023-04-25T00:14:54;100411.00;;;24.69;31.61
56518;BME280;42419;48.760;2.322;2023-04-25T00:17:22;100424.53;;;24.81;31.45
56518;BME280;42419;48.760;2.322;2023-04-25T00:19:49;100423.56;;;24.82;31.84
56518;BME280;42419;48.760;2.322;2023-04-25T00:22:15;100426.19;;;24.84;31.62
56518;BME280;42419;48.760;2.322;2023-04-25T00:24:40;100426.19;;;24.84;31.79
56518;BME280;42419;48.760;2.322;2023-04-25T00:27:06;100404.06;;;24.79;31.87
56518;BME280;42419;48.760;2.322;2023-04-25T00:29:31;100424.13;;;24.87;31.67
56518;BME280;42419;48.760;2.322;2023-04-25T00:31:56;100419.81;;;24.85;31.48
56518;BME280;42419;48.760;2.322;2023-04-25T00:34:22;100407.72;;;24.78;31.54
56518;BME280;42419;48.760;2.322;2023-04-25T00:36:47;100429.44;;;24.89;31.63
56518;BME280;42419;48.760;2.322;2023-04-25T00:39:12;100432.00;;;24.90;31.67
56518;BME280;42419;48.760;2.322;2023-04-25T00:41:38;100430.19;;;24.91;31.98
56518;BME280;42419;48.760;2.322;2023-04-25T00:44:03;100425.66;;;24.91;31.54
56518;BME280;42419;48.760;2.322;2023-04-25T00:46:30;100429.44;;;24.89;31.25
56518;BME280;42419;48.760;2.322;2023-04-25T00:48:56;100426.84;;;24.87;31.34
56518;BME280;42419;48.760;2.322;2023-04-25T00:51:21;100427.50;;;24.91;31.17
56518;BME280;42419;48.760;2.322;2023-04-25T00:53:49;100420.19;;;24.93;31.36
56518;BME280;42419;48.760;2.322;2023-04-25T00:56:15;100419.22;;;24.94;31.41
56518;BME280;42419;48.760;2.322;2023-04-25T00:58:41;100409.81;;;24.87;31.33
56518;BME280;42419;48.760;2.322;2023-04-25T01:01:09;100408.19;;;24.84;31.26
56518;BME280;42419;48.760;2.322;2023-04-25T01:03:37;100429.72;;;24.98;31.22
56518;BME280;42419;48.760;2.322;2023-04-25T01:06:07;100390.50;;;24.80;31.05
56518;BME280;42419;48.760;2.322;2023-04-25T01:08:33;100411.44;;;24.89;30.97
56518;BME280;42419;48.760;2.322;2023-04-25T01:10:59;100427.84;;;24.99;30.94
56518;BME280;42419;48.760;2.322;2023-04-25T01:13:24;100419.78;;;24.99;30.79
56518;BME280;42419;48.760;2.322;2023-04-25T01:15:49;100414.38;;;24.99;31.30
56518;BME280;42419;48.760;2.322;2023-04-25T01:18:15;100412.78;;;24.96;31.13
56518;BME280;42419;48.760;2.322;2023-04-25T01:20:41;100419.03;;;24.97;31.22
56518;BME280;42419;48.760;2.322;2023-04-25T01:23:07;100418.94;;;24.98;31.25
56518;BME280;42419;48.760;2.322;2023-04-25T01:25:33;100411.59;;;25.00;30.60
56518;BME280;42419;48.760;2.322;2023-04-25T01:27:59;100408.91;;;25.00;31.18
56518;BME280;42419;48.760;2.322;2023-04-25T01:30:28;100410.72;;;25.00;30.87
56518;BME280;42419;48.760;2.322;2023-04-25T01:32:56;100405.47;;;24.98;31.08
56518;BME280;42419;48.760;2.322;2023-04-25T01:35:22;100390.94;;;24.87;30.58
56518;BME280;42419;48.760;2.322;2023-04-25T01:37:51;100414.94;;;25.04;30.75
56518;BME280;42419;48.760;2.322;2023-04-25T01:40:17;100419.47;;;25.03;30.65
56518;BME280;42419;48.760;2.322;2023-04-25T01:42:44;100420.16;;;25.07;30.93
56518;BME280;42419;48.760;2.322;2023-04-25T01:45:10;100422.06;;;25.05;30.57
56518;BME280;42419;48.760;2.322;2023-04-25T01:47:37;100407.88;;;25.03;30.43
56518;BME280;42419;48.760;2.322;2023-04-25T01:50:06;100421.13;;;25.06;30.74
56518;BME280;42419;48.760;2.322;2023-04-25T01:52:31;100423.59;;;25.09;30.66
56518;BME280;42419;48.760;2.322;2023-04-25T01:54:57;100420.84;;;25.11;30.82
56518;BME280;42419;48.760;2.322;2023-04-25T01:57:24;100422.72;;;25.09;30.89
56518;BME280;42419;48.760;2.322;2023-04-25T01:59:50;100418.16;;;25.11;30.32
56518;BME280;42419;48.760;2.322;2023-04-25T02:02:15;100417.28;;;25.10;30.66
56518;BME280;42419;48.760;2.322;2023-04-25T02:04:40;100395.44;;;25.00;30.49
56518;BME280;42419;48.760;2.322;2023-04-25T02:07:06;100408.69;;;25.03;30.69
56518;BME280;42419;48.760;2.322;2023-04-25T02:09:31;100420.47;;;25.17;30.46
56518;BME280;42419;48.760;2.322;2023-04-25T02:11:56;100423.81;;;25.20;30.21
56518;BME280;42419;48.760;2.322;2023-04-25T02:14:21;100373.84;;;24.88;30.57
56518;BME280;42419;48.760;2.322;2023-04-25T02:16:47;100422.94;;;25.20;30.02
56518;BME280;42419;48.760;2.322;2023-04-25T02:19:12;100428.03;;;25.24;30.23
56518;BME280;42419;48.760;2.322;2023-04-25T02:21:38;100424.56;;;25.22;30.02
56518;BME280;42419;48.760;2.322;2023-04-25T02:24:03;100423.69;;;25.22;30.17
56518;BME280;42419;48.760;2.322;2023-04-25T02:26:29;100429.84;;;25.24;29.97
56518;BME280;42419;48.760;2.322;2023-04-25T02:28:56;100424.69;;;25.21;30.18
56518;BME280;42419;48.760;2.322;2023-04-25T02:31:21;100424.56;;;25.22;30.50
56518;BME280;42419;48.760;2.322;2023-04-25T02:33:47;100416.91;;;25.16;30.14
56518;BME280;42419;48.760;2.322;2023-04-25T02:36:12;100427.81;;;25.27;29.90
56518;BME280;42419;48.760;2.322;2023-04-25T02:38:38;100422.44;;;25.27;30.19
56518;BME280;42419;48.760;2.322;2023-04-25T02:41:03;100421.22;;;25.19;30.28
56518;BME280;42419;48.760;2.322;2023-04-25T02:43:29;100426.28;;;25.23;30.41
56518;BME280;42419;48.760;2.322;2023-04-25T02:45:55;100431.69;;;25.23;30.32
56518;BME280;42419;48.760;2.322;2023-04-25T02:48:20;100419.78;;;25.13;30.07
56518;BME280;42419;48.760;2.322;2023-04-25T02:50:45;100440.06;;;25.19;30.60
56518;BME280;42419;48.760;2.322;2023-04-25T02:53:11;100441.81;;;25.20;30.04
56518;BME280;42419;48.760;2.322;2023-04-25T02:55:36;100437.94;;;25.24;30.17
56518;BME280;42419;48.760;2.322;2023-04-25T02:58:01;100442.66;;;25.20;29.86
56518;BME280;42419;48.760;2.322;2023-04-25T03:00:27;100433.63;;;25.21;29.77
56518;BME280;42419;48.760;2.322;2023-04-25T03:02:52;100433.63;;;25.21;29.79
56518;BME280;42419;48.760;2.322;2023-04-25T03:05:17;100423.34;;;25.14;30.12
56518;BME280;42419;48.760;2.322;2023-04-25T03:07:43;100431.03;;;25.20;30.02
56518;BME280;42419;48.760;2.322;2023-04-25T03:10:10;100430.38;;;25.16;29.83
56518;BME280;42419;48.760;2.322;2023-04-25T03:12:35;100446.53;;;25.16;30.21
56518;BME280;42419;48.760;2.322;2023-04-25T03:15:01;100402.22;;;24.93;30.16
56518;BME280;42419;48.760;2.322;2023-04-25T03:17:26;100427.97;;;25.12;29.81
56518;BME280;42419;48.760;2.322;2023-04-25T03:19:51;100432.06;;;25.17;30.08
56518;BME280;42419;48.760;2.322;2023-04-25T03:22:17;100441.03;;;25.18;30.21
56518;BME280;42419;48.760;2.322;2023-04-25T03:24:42;100445.47;;;25.19;30.22
56518;BME280;42419;48.760;2.322;2023-04-25T03:27:07;100433.81;;;25.18;29.75
56518;BME280;42419;48.760;2.322;2023-04-25T03:29:33;100440.53;;;25.25;30.03
56518;BME280;42419;48.760;2.322;2023-04-25T03:32:01;100426.84;;;25.28;29.54
56518;BME280;42419;48.760;2.322;2023-04-25T03:34:26;100423.75;;;25.34;29.82
56518;BME280;42419;48.760;2.322;2023-04-25T03:36:52;100422.03;;;25.33;29.41
56518;BME280;42419;48.760;2.322;2023-04-25T03:39:17;100440.16;;;25.44;29.58
56518;BME280;42419;48.760;2.322;2023-04-25T03:41:42;100440.28;;;25.42;29.66
56518;BME280;42419;48.760;2.322;2023-04-25T03:44:08;100441.25;;;25.41;29.76
56518;BME280;42419;48.760;2.322;2023-04-25T03:46:33;100443.06;;;25.41;29.70
56518;BME280;42419;48.760;2.322;2023-04-25T03:48:58;100443.94;;;25.41;29.29
56518;BME280;42419;48.760;2.322;2023-04-25T03:51:24;100439.72;;;25.37;29.73
56518;BME280;42419;48.760;2.322;2023-04-25T03:53:51;100442.31;;;25.39;29.37
56518;BME280;42419;48.760;2.322;2023-04-25T03:56:16;100437.13;;;25.36;29.41
56518;BME280;42419;48.760;2.322;2023-04-25T03:58:41;100438.28;;;25.32;29.47
56518;BME280;42419;48.760;2.322;2023-04-25T04:01:07;100434.53;;;25.34;29.22
56518;BME280;42419;48.760;2.322;2023-04-25T04:03:33;100435.59;;;25.32;29.56
56518;BME280;42419;48.760;2.322;2023-04-25T04:06:00;100438.19;;;25.33;29.66
56518;BME280;42419;48.760;2.322;2023-04-25T04:08:25;100439.38;;;25.29;29.91
56518;BME280;42419;48.760;2.322;2023-04-25T04:10:50;100438.50;;;25.29;29.12
56518;BME280;42419;48.760;2.322;2023-04-25T04:13:16;100439.38;;;25.29;29.38
56518;BME280;42419;48.760;2.322;2023-04-25T04:15:41;100438.38;;;25.30;29.75
56518;BME280;42419;48.760;2.322;2023-04-25T04:18:06;100438.38;;;25.30;29.54
56518;BME280;42419;48.760;2.322;2023-04-25T04:20:31;100433.00;;;25.30;29.82
56518;BME280;42419;48.760;2.322;2023-04-25T04:22:57;100440.97;;;25.32;29.43
56518;BME280;42419;48.760;2.322;2023-04-25T04:25:22;100453.50;;;25.33;29.66
56518;BME280;42419;48.760;2.322;2023-04-25T04:27:49;100437.41;;;25.31;29.42
56518;BME280;42419;48.760;2.322;2023-04-25T04:30:16;100450.16;;;25.29;29.12
56518;BME280;42419;48.760;2.322;2023-04-25T04:32:42;100458.69;;;25.36;29.26
56518;BME280;42419;48.760;2.322;2023-04-25T04:35:08;100457.72;;;25.37;29.22
56518;BME280;42419;48.760;2.322;2023-04-25T04:37:34;100464.94;;;25.36;29.51
56518;BME280;42419;48.760;2.322;2023-04-25T04:39:59;100469.47;;;25.36;29.57
56518;BME280;42419;48.760;2.322;2023-04-25T04:42:24;100478.19;;;25.39;29.00
56518;BME280;42419;48.760;2.322;2023-04-25T04:44:50;100479.28;;;25.37;29.46
56518;BME280;42419;48.760;2.322;2023-04-25T04:47:17;100456.88;;;25.22;28.91
56518;BME280;42419;48.760;2.322;2023-04-25T04:49:42;100482.84;;;25.37;29.41
56518;BME280;42419;48.760;2.322;2023-04-25T04:52:07;100481.63;;;25.29;29.59
56518;BME280;42419;48.760;2.322;2023-04-25T04:54:33;100488.53;;;25.33;29.31
56518;BME280;42419;48.760;2.322;2023-04-25T04:57:00;100490.63;;;25.42;29.60
56518;BME280;42419;48.760;2.322;2023-04-25T04:59:25;100473.97;;;25.35;29.78
56518;BME280;42419;48.760;2.322;2023-04-25T05:01:52;100499.47;;;25.44;29.74
56518;BME280;42419;48.760;2.322;2023-04-25T05:04:17;100500.34;;;25.44;29.83
56518;BME280;42419;48.760;2.322;2023-04-25T05:06:46;100499.09;;;25.36;30.05
56518;BME280;42419;48.760;2.322;2023-04-25T05:09:12;100443.63;;;25.05;29.64
56518;BME280;42419;48.760;2.322;2023-04-25T05:11:37;100454.19;;;25.08;29.86
56518;BME280;42419;48.760;2.322;2023-04-25T05:14:02;100518.75;;;25.38;29.93
56518;BME280;42419;48.760;2.322;2023-04-25T05:16:28;100510.16;;;25.45;30.25
56518;BME280;42419;48.760;2.322;2023-04-25T05:18:53;100476.41;;;25.26;29.68
56518;BME280;42419;48.760;2.322;2023-04-25T05:21:18;100509.19;;;25.46;29.85
56518;BME280;42419;48.760;2.322;2023-04-25T05:23:44;100533.53;;;25.59;29.74
56518;BME280;42419;48.760;2.322;2023-04-25T05:26:09;100542.25;;;25.63;29.45
56518;BME280;42419;48.760;2.322;2023-04-25T05:28:41;100552.31;;;25.61;29.42
56518;BME280;42419;48.760;2.322;2023-04-25T05:31:07;100538.34;;;25.54;29.58
56518;BME280;42419;48.760;2.322;2023-04-25T05:33:35;100557.69;;;25.61;29.31
56518;BME280;42419;48.760;2.322;2023-04-25T05:36:00;100553.47;;;25.57;29.76
56518;BME280;42419;48.760;2.322;2023-04-25T05:38:25;100558.09;;;25.55;29.44
56518;BME280;42419;48.760;2.322;2023-04-25T05:40:51;100561.66;;;25.55;29.52
56518;BME280;42419;48.760;2.322;2023-04-25T05:43:16;100571.66;;;25.53;29.63
56518;BME280;42419;48.760;2.322;2023-04-25T05:45:41;100559.06;;;25.39;29.87
56518;BME280;42419;48.760;2.322;2023-04-25T05:48:06;100579.28;;;25.46;30.03
56518;BME280;42419;48.760;2.322;2023-04-25T05:50:32;100522.72;;;25.04;30.00
56518;BME280;42419;48.760;2.322;2023-04-25T05:52:57;100584.41;;;25.37;29.85
56518;BME280;42419;48.760;2.322;2023-04-25T05:55:22;100589.00;;;25.35;29.90
56518;BME280;42419;48.760;2.322;2023-04-25T05:57:48;100582.22;;;25.29;29.82
56518;BME280;42419;48.760;2.322;2023-04-25T06:00:14;100592.88;;;25.31;29.71
56518;BME280;42419;48.760;2.322;2023-04-25T06:02:41;100593.00;;;25.29;29.91
56518;BME280;42419;48.760;2.322;2023-04-25T06:05:07;100596.56;;;25.30;29.86
56518;BME280;42419;48.760;2.322;2023-04-25T06:07:32;100586.38;;;25.21;29.80
56518;BME280;42419;48.760;2.322;2023-04-25T06:09:58;100611.84;;;25.29;29.69
56518;BME280;42419;48.760;2.322;2023-04-25T06:12:24;100608.47;;;25.26;29.87
56518;BME280;42419;48.760;2.322;2023-04-25T06:14:49;100605.69;;;25.27;29.60
56518;BME280;42419;48.760;2.322;2023-04-25T06:17:15;100606.47;;;25.29;29.90
56518;BME280;42419;48.760;2.322;2023-04-25T06:19:40;100607.44;;;25.28;29.93
56518;BME280;42419;48.760;2.322;2023-04-25T06:22:06;100607.44;;;25.28;29.59
56518;BME280;42419;48.760;2.322;2023-04-25T06:24:32;100584.91;;;25.15;29.79
56518;BME280;42419;48.760;2.322;2023-04-25T06:26:57;100606.56;;;25.28;29.45
56518;BME280;42419;48.760;2.322;2023-04-25T06:29:23;100581.25;;;25.16;29.44
56518;BME280;42419;48.760;2.322;2023-04-25T06:31:48;100557.94;;;25.01;29.85
56518;BME280;42419;48.760;2.322;2023-04-25T06:34:14;100604.63;;;25.30;29.92
56518;BME280;42419;48.760;2.322;2023-04-25T06:36:40;100596.72;;;25.27;29.65
56518;BME280;42419;48.760;2.322;2023-04-25T06:39:06;100598.25;;;25.31;29.52
56518;BME280;42419;48.760;2.322;2023-04-25T06:41:31;100609.81;;;25.33;29.58
56518;BME280;42419;48.760;2.322;2023-04-25T06:43:57;100613.41;;;25.33;29.64
56518;BME280;42419;48.760;2.322;2023-04-25T06:46:22;100613.41;;;25.33;29.63
56518;BME280;42419;48.760;2.322;2023-04-25T06:48:47;100614.94;;;25.37;29.52
56518;BME280;42419;48.760;2.322;2023-04-25T06:51:13;100602.03;;;25.28;29.03
56518;BME280;42419;48.760;2.322;2023-04-25T06:53:39;100619.38;;;25.38;29.57
56518;BME280;42419;48.760;2.322;2023-04-25T06:56:04;100618.28;;;25.41;29.30
56518;BME280;42419;48.760;2.322;2023-04-25T06:58:29;100628.03;;;25.43;29.26
56518;BME280;42419;48.760;2.322;2023-04-25T07:00:54;100623.59;;;25.42;29.35
56518;BME280;42419;48.760;2.322;2023-04-25T07:03:20;100580.81;;;25.08;28.93
56518;BME280;42419;48.760;2.322;2023-04-25T07:05:45;100634.38;;;25.42;28.91
56518;BME280;42419;48.760;2.322;2023-04-25T07:08:11;100641.38;;;25.45;29.29
56518;BME280;42419;48.760;2.322;2023-04-25T07:10:36;100636.88;;;25.45;28.77
56518;BME280;42419;48.760;2.322;2023-04-25T07:13:01;100646.78;;;25.45;29.27
56518;BME280;42419;48.760;2.322;2023-04-25T07:15:27;100632.13;;;25.35;28.86
56518;BME280;42419;48.760;2.322;2023-04-25T07:17:52;100645.91;;;25.44;29.03
56518;BME280;42419;48.760;2.322;2023-04-25T07:20:17;100650.56;;;25.42;28.86
56518;BME280;42419;48.760;2.322;2023-04-25T07:22:43;100641.09;;;25.35;28.84
56518;BME280;42419;48.760;2.322;2023-04-25T07:25:09;100656.69;;;25.44;29.06
56518;BME280;42419;48.760;2.322;2023-04-25T07:27:34;100666.22;;;25.50;29.08
56518;BME280;42419;48.760;2.322;2023-04-25T07:30:00;100594.16;;;25.11;28.76
56518;BME280;42419;48.760;2.322;2023-04-25T07:32:26;100659.50;;;25.43;28.16
56518;BME280;42419;48.760;2.322;2023-04-25T07:34:51;100647.84;;;25.28;28.57
56518;BME280;42419;48.760;2.322;2023-04-25T07:37:17;100662.50;;;25.38;28.25
56518;BME280;42419;48.760;2.322;2023-04-25T07:39:44;100675.09;;;25.38;28.21
56518;BME280;42419;48.760;2.322;2023-04-25T07:42:11;100664.19;;;25.39;28.15
56518;BME280;42419;48.760;2.322;2023-04-25T07:44:36;100682.13;;;25.40;28.07
56518;BME280;42419;48.760;2.322;2023-04-25T07:47:07;100686.53;;;25.41;28.43
56518;BME280;42419;48.760;2.322;2023-04-25T07:49:41;100679.81;;;25.34;28.54
56518;BME280;42419;48.760;2.322;2023-04-25T07:52:07;100684.63;;;25.29;28.71
56518;BME280;42419;48.760;2.322;2023-04-25T07:54:32;100704.75;;;25.38;28.69
56518;BME280;42419;48.760;2.322;2023-04-25T07:56:58;100723.50;;;25.39;28.96
56518;BME280;42419;48.760;2.322;2023-04-25T07:59:23;100720.81;;;25.39;28.74
56518;BME280;42419;48.760;2.322;2023-04-25T08:01:49;100724.50;;;25.38;28.79
56518;BME280;42419;48.760;2.322;2023-04-25T08:04:14;100737.25;;;25.35;28.59
56518;BME280;42419;48.760;2.322;2023-04-25T08:06:39;100742.50;;;25.38;28.79
56518;BME280;42419;48.760;2.322;2023-04-25T08:09:05;100732.16;;;25.30;28.38
56518;BME280;42419;48.760;2.322;2023-04-25T08:11:31;100754.22;;;25.37;28.44
56518;BME280;42419;48.760;2.322;2023-04-25T08:13:56;100758.75;;;25.36;28.30
56518;BME280;42419;48.760;2.322;2023-04-25T08:16:22;100773.69;;;25.42;28.51
56518;BME280;42419;48.760;2.322;2023-04-25T08:18:47;100762.91;;;25.56;27.72
56518;BME280;42419;48.760;2.322;2023-04-25T08:21:12;100768.97;;;25.60;27.86
56518;BME280;42419;48.760;2.322;2023-04-25T08:23:38;100776.78;;;25.64;28.00
56518;BME280;42419;48.760;2.322;2023-04-25T08:26:04;100767.75;;;25.65;27.98
56518;BME280;42419;48.760;2.322;2023-04-25T08:28:30;100774.59;;;25.71;27.97
56518;BME280;42419;48.760;2.322;2023-04-25T08:30:55;100766.41;;;25.72;28.03
56518;BME280;42419;48.760;2.322;2023-04-25T08:33:21;100767.38;;;25.71;28.14
56518;BME280;42419;48.760;2.322;2023-04-25T08:35:46;100773.44;;;25.75;27.75
56518;BME280;42419;48.760;2.322;2023-04-25T08:38:11;100763.22;;;25.66;28.24
56518;BME280;42419;48.760;2.322;2023-04-25T08:40:38;100769.69;;;25.77;27.95
56518;BME280;42419;48.760;2.322;2023-04-25T08:43:06;100773.34;;;25.76;28.40
56518;BME280;42419;48.760;2.322;2023-04-25T08:45:38;100778.66;;;25.78;27.86
56518;BME280;42419;48.760;2.322;2023-04-25T08:48:05;100782.97;;;25.80;27.74
56518;BME280;42419;48.760;2.322;2023-04-25T08:50:31;100778.81;;;25.75;27.75
56518;BME280;42419;48.760;2.322;2023-04-25T08:52:58;100798.28;;;25.80;27.29
56518;BME280;42419;48.760;2.322;2023-04-25T08:55:27;100772.06;;;25.68;27.71
56518;BME280;42419;48.760;2.322;2023-04-25T08:57:54;100803.97;;;25.75;27.61
56518;BME280;42419;48.760;2.322;2023-04-25T09:00:21;100805.38;;;25.67;27.92
56518;BME280;42419;48.760;2.322;2023-04-25T09:02:48;100807.22;;;25.66;27.55
56518;BME280;42419;48.760;2.322;2023-04-25T09:05:14;100811.16;;;25.61;27.79
56518;BME280;42419;48.760;2.322;2023-04-25T09:07:39;100818.38;;;25.60;27.46
56518;BME280;42419;48.760;2.322;2023-04-25T09:10:05;100826.66;;;25.57;28.08
56518;BME280;42419;48.760;2.322;2023-04-25T09:12:31;100826.56;;;25.59;28.02
56518;BME280;42419;48.760;2.322;2023-04-25T09:15:06;100831.28;;;25.55;28.05
56518;BME280;42419;48.760;2.322;2023-04-25T09:17:32;100832.44;;;25.51;28.34
56518;BME280;42419;48.760;2.322;2023-04-25T09:20:12;100845.81;;;25.53;28.25
56518;BME280;42419;48.760;2.322;2023-04-25T09:22:38;100843.97;;;25.53;27.94
56518;BME280;42419;48.760;2.322;2023-04-25T09:25:09;100844.25;;;25.48;28.24
56518;BME280;42419;48.760;2.322;2023-04-25T09:27:35;100830.78;;;25.34;27.95
56518;BME280;42419;48.760;2.322;2023-04-25T09:30:00;100822.38;;;25.25;28.26
56518;BME280;42419;48.760;2.322;2023-04-25T09:32:26;100836.31;;;25.31;28.18
56518;BME280;42419;48.760;2.322;2023-04-25T09:34:57;100864.28;;;25.44;27.84
56518;BME280;42419;48.760;2.322;2023-04-25T09:39:53;100863.78;;;25.38;28.33
56518;BME280;42419;48.760;2.322;2023-04-25T09:42:22;100863.69;;;25.39;28.63
56518;BME280;42419;48.760;2.322;2023-04-25T09:44:47;100855.72;;;25.38;28.32
56518;BME280;42419;48.760;2.322;2023-04-25T09:47:14;100859.59;;;25.48;27.97
56518;BME280;42419;48.760;2.322;2023-04-25T09:49:41;100863.25;;;25.47;28.14
56518;BME280;42419;48.760;2.322;2023-04-25T09:52:07;100858.59;;;25.49;28.12
56518;BME280;42419;48.760;2.322;2023-04-25T09:54:32;100874.50;;;25.54;28.14
56518;BME280;42419;48.760;2.322;2023-04-25T09:57:21;100878.75;;;25.58;28.05
56518;BME280;42419;48.760;2.322;2023-04-25T10:02:19;100881.84;;;25.52;28.50
56518;BME280;42419;48.760;2.322;2023-04-25T10:04:49;100892.72;;;25.50;28.50
56518;BME280;42419;48.760;2.322;2023-04-25T10:07:17;100877.94;;;25.41;28.15
56518;BME280;42419;48.760;2.322;2023-04-25T10:09:43;100894.81;;;25.45;28.21
56518;BME280;42419;48.760;2.322;2023-04-25T10:12:12;100891.22;;;25.44;27.91
56518;BME280;42419;48.760;2.322;2023-04-25T10:14:38;100890.63;;;25.39;28.39
56518;BME280;42419;48.760;2.322;2023-04-25T10:17:03;100897.00;;;25.38;28.31
56518;BME280;42419;48.760;2.322;2023-04-25T10:19:29;100895.19;;;25.39;28.29
56518;BME280;42419;48.760;2.322;2023-04-25T10:22:07;100872.50;;;25.27;28.12
56518;BME280;42419;48.760;2.322;2023-04-25T10:24:35;100910.66;;;25.35;28.25
56518;BME280;42419;48.760;2.322;2023-04-25T10:27:00;100907.00;;;25.36;28.68
56518;BME280;42419;48.760;2.322;2023-04-25T10:29:27;100894.88;;;25.29;28.20
56518;BME280;42419;48.760;2.322;2023-04-25T10:31:53;100907.00;;;25.36;28.28
56518;BME280;42419;48.760;2.322;2023-04-25T10:34:21;100888.59;;;25.29;28.63
56518;BME280;42419;48.760;2.322;2023-04-25T10:36:52;100892.94;;;25.31;28.64
56518;BME280;42419;48.760;2.322;2023-04-25T10:39:26;100904.31;;;25.36;28.61
56518;BME280;42419;48.760;2.322;2023-04-25T10:41:56;100893.03;;;25.30;28.65
56518;BME280;42419;48.760;2.322;2023-04-25T10:44:25;100887.72;;;25.28;28.67
56518;BME280;42419;48.760;2.322;2023-04-25T10:46:51;100899.88;;;25.35;28.60
56518;BME280;42419;48.760;2.322;2023-04-25T10:49:37;100895.47;;;25.34;28.86
56518;BME280;42419;48.760;2.322;2023-04-25T10:54:56;100901.41;;;25.39;29.19
56518;BME280;42419;48.760;2.322;2023-04-25T10:57:44;100906.47;;;25.45;28.68
56518;BME280;42419;48.760;2.322;2023-04-25T11:00:19;100908.41;;;25.43;28.78
56518;BME280;42419;48.760;2.322;2023-04-25T11:02:58;100896.56;;;25.30;28.75
56518;BME280;42419;48.760;2.322;2023-04-25T11:05:33;100910.66;;;25.35;29.86
56518;BME280;42419;48.760;2.322;2023-04-25T11:07:59;100916.50;;;25.28;29.69
56518;BME280;42419;48.760;2.322;2023-04-25T11:10:29;100912.94;;;25.27;29.89
56518;BME280;42419;48.760;2.322;2023-04-25T11:12:56;100913.63;;;25.31;29.81
56518;BME280;42419;48.760;2.322;2023-04-25T11:15:21;100915.88;;;25.38;29.36
56518;BME280;42419;48.760;2.322;2023-04-25T11:17:47;100921.09;;;25.41;29.73
56518;BME280;42419;48.760;2.322;2023-04-25T11:20:13;100922.84;;;25.42;29.46
56518;BME280;42419;48.760;2.322;2023-04-25T11:22:40;100919.06;;;25.45;29.04
56518;BME280;42419;48.760;2.322;2023-04-25T11:25:09;100914.63;;;25.44;28.90
56518;BME280;42419;48.760;2.322;2023-04-25T11:27:49;100913.78;;;25.43;28.64
56518;BME280;42419;48.760;2.322;2023-04-25T11:30:16;100920.47;;;25.36;29.64
56518;BME280;42419;48.760;2.322;2023-04-25T11:32:42;100903.72;;;25.31;29.60
56518;BME280;42419;48.760;2.322;2023-04-25T11:35:10;100903.97;;;25.27;29.81
56518;BME280;42419;48.760;2.322;2023-04-25T11:37:36;100902.63;;;25.20;29.22
56518;BME280;42419;48.760;2.322;2023-04-25T11:40:04;100904.34;;;25.21;29.24
56518;BME280;42419;48.760;2.322;2023-04-25T11:42:31;100924.50;;;25.29;29.11
56518;BME280;42419;48.760;2.322;2023-04-25T11:44:57;100916.22;;;25.32;29.29
56518;BME280;42419;48.760;2.322;2023-04-25T11:47:30;100917.78;;;25.36;28.76
56518;BME280;42419;48.760;2.322;2023-04-25T11:49:58;100914.81;;;25.41;27.99
56518;BME280;42419;48.760;2.322;2023-04-25T11:52:23;100913.94;;;25.40;27.80
56518;BME280;42419;48.760;2.322;2023-04-25T11:54:49;100909.50;;;25.39;28.10
56518;BME280;42419;48.760;2.322;2023-04-25T11:57:14;100918.75;;;25.35;28.30
56518;BME280;42419;48.760;2.322;2023-04-25T11:59:43;100921.81;;;25.29;27.71
56518;BME280;42419;48.760;2.322;2023-04-25T12:02:09;100904.25;;;25.22;28.34
56518;BME280;42419;48.760;2.322;2023-04-25T12:04:34;100916.22;;;25.32;27.75
56518;BME280;42419;48.760;2.322;2023-04-25T12:06:59;100921.63;;;25.32;27.70
56518;BME280;42419;48.760;2.322;2023-04-25T12:09:31;100907.19;;;25.33;27.93
56518;BME280;42419;48.760;2.322;2023-04-25T12:11:58;100894.94;;;25.28;27.45
56518;BME280;42419;48.760;2.322;2023-04-25T12:14:28;100911.38;;;25.39;27.60
56518;BME280;42419;48.760;2.322;2023-04-25T12:16:56;100905.00;;;25.40;27.54
56518;BME280;42419;48.760;2.322;2023-04-25T12:19:23;100911.25;;;25.40;26.24
56518;BME280;42419;48.760;2.322;2023-04-25T12:21:49;100896.00;;;25.25;25.52
56518;BME280;42419;48.760;2.322;2023-04-25T12:24:17;100893.66;;;25.19;26.42
56518;BME280;42419;48.760;2.322;2023-04-25T12:26:50;100911.38;;;25.23;26.49
56518;BME280;42419;48.760;2.322;2023-04-25T12:29:21;100918.00;;;25.18;27.39
56518;BME280;42419;48.760;2.322;2023-04-25T12:31:47;100928.09;;;25.14;27.73
56518;BME280;42419;48.760;2.322;2023-04-25T12:34:13;100924.63;;;25.12;27.87
56518;BME280;42419;48.760;2.322;2023-04-25T12:36:38;100926.56;;;25.09;28.41
56518;BME280;42419;48.760;2.322;2023-04-25T12:39:04;100925.69;;;25.08;28.52
56518;BME280;42419;48.760;2.322;2023-04-25T12:41:30;100930.09;;;25.11;28.23
56518;BME280;42419;48.760;2.322;2023-04-25T12:43:55;100931.09;;;25.08;28.72
56518;BME280;42419;48.760;2.322;2023-04-25T12:46:21;100930.09;;;25.11;28.36
56518;BME280;42419;48.760;2.322;2023-04-25T12:48:47;100918.31;;;24.96;28.68
56518;BME280;42419;48.760;2.322;2023-04-25T12:51:13;100926.75;;;25.05;28.51
56518;BME280;42419;48.760;2.322;2023-04-25T12:53:38;100933.66;;;25.11;29.14